sensor_id;sensor_type;location;lat;lon;timestamp;temperature;humidity
40670;DHT22;26355;45.528;9.234;2022-12-07T00:01:16;9.10;99.90
40670;DHT22;26355;45.528;9.234;2022-12-07T00:03:43;8.30;99.90
40670;DHT22;26355;45.528;9.234;2022-12-07T00:06:11;8.10;99.90
40670;DHT22;26355;45.528;9.234;2022-12-07T00:08:37;9.30;99.90
40670;DHT22;26355;45.528;9.234;2022-12-07T00:11:14;8.10;99.90
40670;DHT22;26355;45.528;9.234;2022-12-07T00:13:41;8.00;99.90
40670;DHT22;26355;45.528;9.234;2022-12-07T00:16:13;9.30;99.90
40670;DHT22;26355;45.528;9.234;2022-12-07T00:18:38;7.90;99.90
40670;DHT22;26355;45.528;9.234;2022-12-07T00:21:16;10.30;99.90
40670;DHT22;26355;45.528;9.234;2022-12-07T00:23:43;7.80;99.90
40670;DHT22;26355;45.528;9.234;2022-12-07T00:26:16;7.90;99.90
40670;DHT22;26355;45.528;9.234;2022-12-07T00:28:51;9.50;99.90
40670;DHT22;26355;45.528;9.234;2022-12-07T00:31:18;9.70;99.90
40670;DHT22;26355;45.528;9.234;2022-12-07T00:33:44;8.60;99.90
40670;DHT22;26355;45.528;9.234;2022-12-07T00:36:13;9.20;99.90
40670;DHT22;26355;45.528;9.234;2022-12-07T00:38:39;7.80;99.90
40670;DHT22;26355;45.528;9.234;2022-12-07T00:41:09;7.80;99.90
40670;DHT22;26355;45.528;9.234;2022-12-07T00:43:35;8.10;99.90
40670;DHT22;26355;45.528;9.234;2022-12-07T00:46:01;8.10;99.90
40670;DHT22;26355;45.528;9.234;2022-12-07T00:48:26;9.10;99.90
40670;DHT22;26355;45.528;9.234;2022-12-07T00:50:52;10.40;99.90
40670;DHT22;26355;45.528;9.234;2022-12-07T00:53:18;8.00;99.90
40670;DHT22;26355;45.528;9.234;2022-12-07T00:55:44;8.30;99.90
40670;DHT22;26355;45.528;9.234;2022-12-07T00:58:10;8.00;99.90
40670;DHT22;26355;45.528;9.234;2022-12-07T01:00:37;8.90;99.90
40670;DHT22;26355;45.528;9.234;2022-12-07T01:03:04;9.10;99.90
40670;DHT22;26355;45.528;9.234;2022-12-07T01:05:30;7.10;99.90
40670;DHT22;26355;45.528;9.234;2022-12-07T01:07:55;7.40;99.90
40670;DHT22;26355;45.528;9.234;2022-12-07T01:10:21;11.10;99.90
40670;DHT22;26355;45.528;9.234;2022-12-07T01:12:47;8.40;99.90
40670;DHT22;26355;45.528;9.234;2022-12-07T01:15:13;7.00;99.90
40670;DHT22;26355;45.528;9.234;2022-12-07T01:17:38;8.00;99.90
40670;DHT22;26355;45.528;9.234;2022-12-07T01:20:04;7.60;99.90
40670;DHT22;26355;45.528;9.234;2022-12-07T01:22:30;7.20;99.90
40670;DHT22;26355;45.528;9.234;2022-12-07T01:24:56;7.40;99.90
40670;DHT22;26355;45.528;9.234;2022-12-07T01:27:21;7.90;99.90
40670;DHT22;26355;45.528;9.234;2022-12-07T01:29:47;7.30;99.90
40670;DHT22;26355;45.528;9.234;2022-12-07T01:32:12;7.70;99.90
40670;DHT22;26355;45.528;9.234;2022-12-07T01:34:38;7.70;99.90
40670;DHT22;26355;45.528;9.234;2022-12-07T01:37:04;7.00;99.90
40670;DHT22;26355;45.528;9.234;2022-12-07T01:39:29;7.90;99.90
40670;DHT22;26355;45.528;9.234;2022-12-07T01:41:55;8.60;99.90
40670;DHT22;26355;45.528;9.234;2022-12-07T01:44:25;8.30;99.90
40670;DHT22;26355;45.528;9.234;2022-12-07T01:47:00;7.30;99.90
40670;DHT22;26355;45.528;9.234;2022-12-07T01:49:28;7.30;99.90
40670;DHT22;26355;45.528;9.234;2022-12-07T01:52:18;8.00;99.90
40670;DHT22;26355;45.528;9.234;2022-12-07T01:54:46;8.10;99.90
40670;DHT22;26355;45.528;9.234;2022-12-07T01:57:14;7.20;99.90
40670;DHT22;26355;45.528;9.234;2022-12-07T01:59:43;8.20;99.90
40670;DHT22;26355;45.528;9.234;2022-12-07T02:02:15;9.50;99.90
40670;DHT22;26355;45.528;9.234;2022-12-07T02:04:43;7.10;99.90
40670;DHT22;26355;45.528;9.234;2022-12-07T02:07:09;7.00;99.90
40670;DHT22;26355;45.528;9.234;2022-12-07T02:09:35;7.60;99.90
40670;DHT22;26355;45.528;9.234;2022-12-07T02:12:01;7.50;99.90
40670;DHT22;26355;45.528;9.234;2022-12-07T02:14:27;8.00;99.90
40670;DHT22;26355;45.528;9.234;2022-12-07T02:26:32;6.70;99.90
40670;DHT22;26355;45.528;9.234;2022-12-07T02:31:49;8.60;99.90
40670;DHT22;26355;45.528;9.234;2022-12-07T02:36:52;7.10;99.90
40670;DHT22;26355;45.528;9.234;2022-12-07T02:39:31;7.70;99.90
40670;DHT22;26355;45.528;9.234;2022-12-07T02:42:04;6.90;99.90
40670;DHT22;26355;45.528;9.234;2022-12-07T02:44:32;6.80;99.90
40670;DHT22;26355;45.528;9.234;2022-12-07T02:47:03;7.80;99.90
40670;DHT22;26355;45.528;9.234;2022-12-07T02:49:30;8.00;99.90
40670;DHT22;26355;45.528;9.234;2022-12-07T02:51:56;8.70;99.90
40670;DHT22;26355;45.528;9.234;2022-12-07T02:54:22;6.90;99.90
40670;DHT22;26355;45.528;9.234;2022-12-07T02:57:40;6.80;99.90
40670;DHT22;26355;45.528;9.234;2022-12-07T03:11:32;7.20;99.90
40670;DHT22;26355;45.528;9.234;2022-12-07T03:17:01;6.90;99.90
40670;DHT22;26355;45.528;9.234;2022-12-07T03:19:31;6.70;99.90
40670;DHT22;26355;45.528;9.234;2022-12-07T03:22:00;7.90;99.90
40670;DHT22;26355;45.528;9.234;2022-12-07T03:24:32;8.60;99.90
40670;DHT22;26355;45.528;9.234;2022-12-07T03:27:06;8.60;99.90
40670;DHT22;26355;45.528;9.234;2022-12-07T03:29:38;7.20;99.90
40670;DHT22;26355;45.528;9.234;2022-12-07T03:32:14;8.40;99.90
40670;DHT22;26355;45.528;9.234;2022-12-07T03:34:56;6.50;99.90
40670;DHT22;26355;45.528;9.234;2022-12-07T03:37:36;7.10;99.90
40670;DHT22;26355;45.528;9.234;2022-12-07T03:40:26;9.80;99.90
40670;DHT22;26355;45.528;9.234;2022-12-07T03:42:55;6.60;99.90
40670;DHT22;26355;45.528;9.234;2022-12-07T03:45:25;6.30;99.90
40670;DHT22;26355;45.528;9.234;2022-12-07T03:47:54;7.20;99.90
40670;DHT22;26355;45.528;9.234;2022-12-07T03:50:42;7.20;99.90
40670;DHT22;26355;45.528;9.234;2022-12-07T03:53:20;6.50;99.90
40670;DHT22;26355;45.528;9.234;2022-12-07T03:55:48;8.60;99.90
40670;DHT22;26355;45.528;9.234;2022-12-07T03:58:17;7.90;99.90
40670;DHT22;26355;45.528;9.234;2022-12-07T04:00:44;6.50;99.90
40670;DHT22;26355;45.528;9.234;2022-12-07T04:03:11;7.10;99.90
40670;DHT22;26355;45.528;9.234;2022-12-07T04:05:37;7.90;99.90
40670;DHT22;26355;45.528;9.234;2022-12-07T04:08:03;6.40;99.90
40670;DHT22;26355;45.528;9.234;2022-12-07T04:10:29;6.50;99.90
40670;DHT22;26355;45.528;9.234;2022-12-07T04:12:55;8.10;99.90
40670;DHT22;26355;45.528;9.234;2022-12-07T04:15:20;6.80;99.90
40670;DHT22;26355;45.528;9.234;2022-12-07T04:17:46;6.50;99.90
40670;DHT22;26355;45.528;9.234;2022-12-07T04:20:12;7.50;99.90
40670;DHT22;26355;45.528;9.234;2022-12-07T04:22:38;5.20;99.90
40670;DHT22;26355;45.528;9.234;2022-12-07T04:25:04;9.20;99.90
40670;DHT22;26355;45.528;9.234;2022-12-07T04:27:29;6.30;99.90
40670;DHT22;26355;45.528;9.234;2022-12-07T04:29:55;7.00;99.90
40670;DHT22;26355;45.528;9.234;2022-12-07T04:32:21;6.30;99.90
40670;DHT22;26355;45.528;9.234;2022-12-07T04:34:47;7.60;99.90
40670;DHT22;26355;45.528;9.234;2022-12-07T04:37:12;6.20;99.90
40670;DHT22;26355;45.528;9.234;2022-12-07T04:39:38;7.00;99.90
40670;DHT22;26355;45.528;9.234;2022-12-07T04:42:04;6.80;99.90
40670;DHT22;26355;45.528;9.234;2022-12-07T04:44:30;6.50;99.90
40670;DHT22;26355;45.528;9.234;2022-12-07T04:46:56;7.20;99.90
40670;DHT22;26355;45.528;9.234;2022-12-07T04:49:23;6.50;99.90
40670;DHT22;26355;45.528;9.234;2022-12-07T04:51:49;6.30;99.90
40670;DHT22;26355;45.528;9.234;2022-12-07T04:54:15;7.70;99.90
40670;DHT22;26355;45.528;9.234;2022-12-07T04:56:41;6.70;99.90
40670;DHT22;26355;45.528;9.234;2022-12-07T04:59:08;8.20;99.90
40670;DHT22;26355;45.528;9.234;2022-12-07T05:01:34;9.30;99.90
40670;DHT22;26355;45.528;9.234;2022-12-07T05:04:00;8.50;99.90
40670;DHT22;26355;45.528;9.234;2022-12-07T05:06:25;6.80;99.90
40670;DHT22;26355;45.528;9.234;2022-12-07T05:08:51;8.10;99.90
40670;DHT22;26355;45.528;9.234;2022-12-07T05:14:03;7.60;99.90
40670;DHT22;26355;45.528;9.234;2022-12-07T05:16:29;8.40;99.90
40670;DHT22;26355;45.528;9.234;2022-12-07T05:18:55;7.40;99.90
40670;DHT22;26355;45.528;9.234;2022-12-07T05:21:21;5.80;99.90
40670;DHT22;26355;45.528;9.234;2022-12-07T05:23:47;8.50;99.90
40670;DHT22;26355;45.528;9.234;2022-12-07T05:26:12;6.30;99.90
40670;DHT22;26355;45.528;9.234;2022-12-07T05:28:38;6.30;99.90
40670;DHT22;26355;45.528;9.234;2022-12-07T05:31:03;9.10;99.90
40670;DHT22;26355;45.528;9.234;2022-12-07T05:33:29;6.30;99.90
40670;DHT22;26355;45.528;9.234;2022-12-07T05:35:55;6.60;99.90
40670;DHT22;26355;45.528;9.234;2022-12-07T05:38:20;8.00;99.90
40670;DHT22;26355;45.528;9.234;2022-12-07T05:40:46;9.00;99.90
40670;DHT22;26355;45.528;9.234;2022-12-07T05:43:12;6.80;99.90
40670;DHT22;26355;45.528;9.234;2022-12-07T05:45:37;6.50;99.90
40670;DHT22;26355;45.528;9.234;2022-12-07T05:48:03;7.30;99.90
40670;DHT22;26355;45.528;9.234;2022-12-07T05:50:28;7.50;99.90
40670;DHT22;26355;45.528;9.234;2022-12-07T05:52:54;7.00;99.90
40670;DHT22;26355;45.528;9.234;2022-12-07T05:55:20;9.10;99.90
40670;DHT22;26355;45.528;9.234;2022-12-07T05:57:45;7.20;99.90
40670;DHT22;26355;45.528;9.234;2022-12-07T06:00:31;8.90;99.90
40670;DHT22;26355;45.528;9.234;2022-12-07T06:02:57;7.20;99.90
40670;DHT22;26355;45.528;9.234;2022-12-07T06:05:23;7.20;99.90
40670;DHT22;26355;45.528;9.234;2022-12-07T06:07:49;7.20;99.90
40670;DHT22;26355;45.528;9.234;2022-12-07T06:10:14;9.80;99.90
40670;DHT22;26355;45.528;9.234;2022-12-07T06:12:40;8.30;99.90
40670;DHT22;26355;45.528;9.234;2022-12-07T06:15:09;8.10;99.90
40670;DHT22;26355;45.528;9.234;2022-12-07T06:17:35;8.10;99.90
40670;DHT22;26355;45.528;9.234;2022-12-07T06:20:01;8.60;99.90
40670;DHT22;26355;45.528;9.234;2022-12-07T06:22:26;7.40;99.90
40670;DHT22;26355;45.528;9.234;2022-12-07T06:24:53;7.30;99.90
40670;DHT22;26355;45.528;9.234;2022-12-07T06:27:19;7.30;99.90
40670;DHT22;26355;45.528;9.234;2022-12-07T06:29:45;7.70;99.90
40670;DHT22;26355;45.528;9.234;2022-12-07T06:32:10;6.10;99.90
40670;DHT22;26355;45.528;9.234;2022-12-07T06:34:37;8.60;99.90
40670;DHT22;26355;45.528;9.234;2022-12-07T06:37:02;7.10;99.90
40670;DHT22;26355;45.528;9.234;2022-12-07T06:39:29;7.10;99.90
40670;DHT22;26355;45.528;9.234;2022-12-07T06:41:55;8.40;99.90
40670;DHT22;26355;45.528;9.234;2022-12-07T06:44:21;7.50;99.90
40670;DHT22;26355;45.528;9.234;2022-12-07T06:46:48;7.00;99.90
40670;DHT22;26355;45.528;9.234;2022-12-07T06:49:14;9.80;99.90
40670;DHT22;26355;45.528;9.234;2022-12-07T06:51:40;7.70;99.90
40670;DHT22;26355;45.528;9.234;2022-12-07T06:54:12;6.90;99.90
40670;DHT22;26355;45.528;9.234;2022-12-07T06:56:38;7.10;99.90
40670;DHT22;26355;45.528;9.234;2022-12-07T06:59:05;7.60;99.90
40670;DHT22;26355;45.528;9.234;2022-12-07T07:01:32;7.70;99.90
40670;DHT22;26355;45.528;9.234;2022-12-07T07:03:58;9.80;99.90
40670;DHT22;26355;45.528;9.234;2022-12-07T07:06:24;7.50;99.90
40670;DHT22;26355;45.528;9.234;2022-12-07T07:08:50;7.40;99.90
40670;DHT22;26355;45.528;9.234;2022-12-07T07:11:15;7.30;99.90
40670;DHT22;26355;45.528;9.234;2022-12-07T07:13:41;9.00;99.90
40670;DHT22;26355;45.528;9.234;2022-12-07T07:16:07;9.70;99.90
40670;DHT22;26355;45.528;9.234;2022-12-07T07:18:33;8.30;99.90
40670;DHT22;26355;45.528;9.234;2022-12-07T07:20:59;7.70;99.90
40670;DHT22;26355;45.528;9.234;2022-12-07T07:23:24;7.70;99.90
40670;DHT22;26355;45.528;9.234;2022-12-07T07:25:50;8.60;99.90
40670;DHT22;26355;45.528;9.234;2022-12-07T07:28:16;7.70;99.90
40670;DHT22;26355;45.528;9.234;2022-12-07T07:30:41;7.60;99.90
40670;DHT22;26355;45.528;9.234;2022-12-07T07:33:07;8.40;99.90
40670;DHT22;26355;45.528;9.234;2022-12-07T07:35:34;7.70;99.90
40670;DHT22;26355;45.528;9.234;2022-12-07T07:38:00;7.80;99.90
40670;DHT22;26355;45.528;9.234;2022-12-07T07:40:29;7.60;99.90
40670;DHT22;26355;45.528;9.234;2022-12-07T07:42:55;8.20;99.90
40670;DHT22;26355;45.528;9.234;2022-12-07T07:45:22;7.20;99.90
40670;DHT22;26355;45.528;9.234;2022-12-07T07:47:49;7.70;99.90
40670;DHT22;26355;45.528;9.234;2022-12-07T07:50:15;7.20;99.90
40670;DHT22;26355;45.528;9.234;2022-12-07T07:52:41;7.40;99.90
40670;DHT22;26355;45.528;9.234;2022-12-07T07:55:07;8.00;99.90
40670;DHT22;26355;45.528;9.234;2022-12-07T07:57:34;9.10;99.90
40670;DHT22;26355;45.528;9.234;2022-12-07T08:00:01;8.50;99.90
40670;DHT22;26355;45.528;9.234;2022-12-07T08:02:26;8.60;99.90
40670;DHT22;26355;45.528;9.234;2022-12-07T08:04:54;9.50;99.90
40670;DHT22;26355;45.528;9.234;2022-12-07T08:07:20;9.50;99.90
40670;DHT22;26355;45.528;9.234;2022-12-07T08:09:46;9.30;99.90
40670;DHT22;26355;45.528;9.234;2022-12-07T08:15:36;9.90;99.90
40670;DHT22;26355;45.528;9.234;2022-12-07T08:18:02;10.40;99.90
40670;DHT22;26355;45.528;9.234;2022-12-07T08:20:30;11.00;99.90
40670;DHT22;26355;45.528;9.234;2022-12-07T08:22:56;11.60;99.90
40670;DHT22;26355;45.528;9.234;2022-12-07T08:25:22;11.50;99.90
40670;DHT22;26355;45.528;9.234;2022-12-07T08:27:48;12.70;99.90
40670;DHT22;26355;45.528;9.234;2022-12-07T08:30:14;12.10;99.90
40670;DHT22;26355;45.528;9.234;2022-12-07T08:32:40;11.70;99.90
40670;DHT22;26355;45.528;9.234;2022-12-07T08:35:06;14.20;99.90
40670;DHT22;26355;45.528;9.234;2022-12-07T08:37:32;12.10;99.90
40670;DHT22;26355;45.528;9.234;2022-12-07T08:39:58;11.90;99.90
40670;DHT22;26355;45.528;9.234;2022-12-07T08:42:23;13.00;99.90
40670;DHT22;26355;45.528;9.234;2022-12-07T08:44:53;11.30;99.90
40670;DHT22;26355;45.528;9.234;2022-12-07T08:47:18;10.90;99.90
40670;DHT22;26355;45.528;9.234;2022-12-07T08:49:47;10.90;99.90
40670;DHT22;26355;45.528;9.234;2022-12-07T08:52:14;10.60;99.90
40670;DHT22;26355;45.528;9.234;2022-12-07T08:54:41;10.70;99.90
40670;DHT22;26355;45.528;9.234;2022-12-07T08:57:07;10.50;99.90
40670;DHT22;26355;45.528;9.234;2022-12-07T08:59:35;10.90;99.90
40670;DHT22;26355;45.528;9.234;2022-12-07T09:02:01;11.20;99.90
40670;DHT22;26355;45.528;9.234;2022-12-07T09:04:27;10.60;99.90
40670;DHT22;26355;45.528;9.234;2022-12-07T09:06:54;11.70;99.90
40670;DHT22;26355;45.528;9.234;2022-12-07T09:09:19;12.20;99.90
40670;DHT22;26355;45.528;9.234;2022-12-07T09:11:45;11.10;99.90
40670;DHT22;26355;45.528;9.234;2022-12-07T09:14:11;11.90;99.90
40670;DHT22;26355;45.528;9.234;2022-12-07T09:16:37;11.00;99.90
40670;DHT22;26355;45.528;9.234;2022-12-07T09:19:03;11.20;99.90
40670;DHT22;26355;45.528;9.234;2022-12-07T09:21:29;11.40;99.90
40670;DHT22;26355;45.528;9.234;2022-12-07T09:23:54;11.60;99.90
40670;DHT22;26355;45.528;9.234;2022-12-07T09:26:20;12.80;99.90
40670;DHT22;26355;45.528;9.234;2022-12-07T09:28:46;13.80;99.90
40670;DHT22;26355;45.528;9.234;2022-12-07T09:31:11;14.10;99.90
40670;DHT22;26355;45.528;9.234;2022-12-07T09:33:37;12.80;99.90
40670;DHT22;26355;45.528;9.234;2022-12-07T09:36:03;14.80;99.90
40670;DHT22;26355;45.528;9.234;2022-12-07T09:38:30;14.20;99.90
40670;DHT22;26355;45.528;9.234;2022-12-07T09:40:56;14.80;99.90
40670;DHT22;26355;45.528;9.234;2022-12-07T09:43:24;15.30;99.90
40670;DHT22;26355;45.528;9.234;2022-12-07T09:45:54;15.50;99.90
40670;DHT22;26355;45.528;9.234;2022-12-07T09:48:34;15.70;99.90
40670;DHT22;26355;45.528;9.234;2022-12-07T09:51:09;16.40;99.70
40670;DHT22;26355;45.528;9.234;2022-12-07T09:53:37;15.90;99.90
40670;DHT22;26355;45.528;9.234;2022-12-07T09:56:03;15.30;99.90
40670;DHT22;26355;45.528;9.234;2022-12-07T09:58:31;14.40;99.90
40670;DHT22;26355;45.528;9.234;2022-12-07T10:01:13;15.00;99.90
40670;DHT22;26355;45.528;9.234;2022-12-07T10:03:42;13.60;99.90
40670;DHT22;26355;45.528;9.234;2022-12-07T10:06:12;13.90;99.90
40670;DHT22;26355;45.528;9.234;2022-12-07T10:08:38;14.30;99.90
40670;DHT22;26355;45.528;9.234;2022-12-07T10:11:03;13.60;99.90
40670;DHT22;26355;45.528;9.234;2022-12-07T10:13:44;13.00;99.90
40670;DHT22;26355;45.528;9.234;2022-12-07T10:18:48;12.10;99.90
40670;DHT22;26355;45.528;9.234;2022-12-07T10:26:40;12.20;99.90
40670;DHT22;26355;45.528;9.234;2022-12-07T10:31:55;11.00;99.90
40670;DHT22;26355;45.528;9.234;2022-12-07T10:34:27;12.60;99.90
40670;DHT22;26355;45.528;9.234;2022-12-07T10:37:14;10.40;99.90
40670;DHT22;26355;45.528;9.234;2022-12-07T10:39:49;10.60;99.90
40670;DHT22;26355;45.528;9.234;2022-12-07T10:42:26;10.10;99.90
40670;DHT22;26355;45.528;9.234;2022-12-07T11:01:28;14.70;99.90
40670;DHT22;26355;45.528;9.234;2022-12-07T11:04:24;17.20;99.90
40670;DHT22;26355;45.528;9.234;2022-12-07T11:07:00;17.20;99.40
40670;DHT22;26355;45.528;9.234;2022-12-07T11:12:34;18.00;98.70
40670;DHT22;26355;45.528;9.234;2022-12-07T11:18:19;17.50;98.40
40670;DHT22;26355;45.528;9.234;2022-12-07T11:21:13;17.20;98.90
40670;DHT22;26355;45.528;9.234;2022-12-07T11:29:48;15.70;99.80
40670;DHT22;26355;45.528;9.234;2022-12-07T11:32:30;15.10;99.90
40670;DHT22;26355;45.528;9.234;2022-12-07T11:37:51;14.50;99.90
40670;DHT22;26355;45.528;9.234;2022-12-07T11:40:26;15.50;99.90
40670;DHT22;26355;45.528;9.234;2022-12-07T11:43:02;15.60;99.90
40670;DHT22;26355;45.528;9.234;2022-12-07T11:45:34;17.10;99.50
40670;DHT22;26355;45.528;9.234;2022-12-07T11:50:52;17.70;98.60
40670;DHT22;26355;45.528;9.234;2022-12-07T11:54:10;19.80;96.80
40670;DHT22;26355;45.528;9.234;2022-12-07T11:56:21;21.70;95.20
40670;DHT22;26355;45.528;9.234;2022-12-07T11:58:49;20.50;94.60
40670;DHT22;26355;45.528;9.234;2022-12-07T12:01:28;19.40;95.70
40670;DHT22;26355;45.528;9.234;2022-12-07T12:06:38;16.70;96.70
40670;DHT22;26355;45.528;9.234;2022-12-07T12:09:13;15.80;98.70
40670;DHT22;26355;45.528;9.234;2022-12-07T12:20:14;14.00;99.90
40670;DHT22;26355;45.528;9.234;2022-12-07T12:22:53;13.50;99.90
40670;DHT22;26355;45.528;9.234;2022-12-07T12:25:26;13.40;99.90
40670;DHT22;26355;45.528;9.234;2022-12-07T12:27:58;13.30;99.90
40670;DHT22;26355;45.528;9.234;2022-12-07T12:30:38;12.90;99.90
40670;DHT22;26355;45.528;9.234;2022-12-07T12:33:12;12.80;99.90
40670;DHT22;26355;45.528;9.234;2022-12-07T12:35:38;12.70;99.90
40670;DHT22;26355;45.528;9.234;2022-12-07T12:38:28;12.50;99.90
40670;DHT22;26355;45.528;9.234;2022-12-07T12:40:55;12.30;99.90
40670;DHT22;26355;45.528;9.234;2022-12-07T12:43:44;12.70;99.90
40670;DHT22;26355;45.528;9.234;2022-12-07T12:54:27;12.00;99.90
40670;DHT22;26355;45.528;9.234;2022-12-07T13:01:47;11.50;99.90
40670;DHT22;26355;45.528;9.234;2022-12-07T13:04:30;11.60;99.90
40670;DHT22;26355;45.528;9.234;2022-12-07T13:07:03;11.30;99.90
40670;DHT22;26355;45.528;9.234;2022-12-07T13:09:31;11.40;99.90
40670;DHT22;26355;45.528;9.234;2022-12-07T13:12:04;12.20;99.90
40670;DHT22;26355;45.528;9.234;2022-12-07T13:14:58;11.00;99.90
40670;DHT22;26355;45.528;9.234;2022-12-07T13:27:46;11.10;99.90
40670;DHT22;26355;45.528;9.234;2022-12-07T13:30:18;11.20;99.90
40670;DHT22;26355;45.528;9.234;2022-12-07T13:32:52;11.10;99.90
40670;DHT22;26355;45.528;9.234;2022-12-07T13:35:33;11.20;99.90
40670;DHT22;26355;45.528;9.234;2022-12-07T13:38:01;11.10;99.90
40670;DHT22;26355;45.528;9.234;2022-12-07T13:40:27;11.50;99.90
40670;DHT22;26355;45.528;9.234;2022-12-07T13:43:12;11.20;99.90
40670;DHT22;26355;45.528;9.234;2022-12-07T13:45:38;11.00;99.90
40670;DHT22;26355;45.528;9.234;2022-12-07T13:48:44;11.10;99.90
40670;DHT22;26355;45.528;9.234;2022-12-07T13:51:21;11.00;99.90
40670;DHT22;26355;45.528;9.234;2022-12-07T13:53:57;10.90;99.90
40670;DHT22;26355;45.528;9.234;2022-12-07T13:56:33;11.20;99.90
40670;DHT22;26355;45.528;9.234;2022-12-07T13:59:00;10.70;99.90
40670;DHT22;26355;45.528;9.234;2022-12-07T14:01:26;11.00;99.90
40670;DHT22;26355;45.528;9.234;2022-12-07T14:03:51;10.70;99.90
40670;DHT22;26355;45.528;9.234;2022-12-07T14:06:24;10.80;99.90
40670;DHT22;26355;45.528;9.234;2022-12-07T14:09:05;10.70;99.90
40670;DHT22;26355;45.528;9.234;2022-12-07T14:11:31;10.70;99.90
40670;DHT22;26355;45.528;9.234;2022-12-07T14:14:02;10.60;99.90
40670;DHT22;26355;45.528;9.234;2022-12-07T14:16:35;12.40;99.90
40670;DHT22;26355;45.528;9.234;2022-12-07T14:19:38;10.20;99.90
40670;DHT22;26355;45.528;9.234;2022-12-07T14:22:06;10.30;99.90
40670;DHT22;26355;45.528;9.234;2022-12-07T14:24:42;10.80;99.90
40670;DHT22;26355;45.528;9.234;2022-12-07T14:27:17;9.90;99.90
40670;DHT22;26355;45.528;9.234;2022-12-07T14:29:43;10.30;99.90
40670;DHT22;26355;45.528;9.234;2022-12-07T14:32:25;10.30;99.90
40670;DHT22;26355;45.528;9.234;2022-12-07T14:37:27;10.60;99.90
40670;DHT22;26355;45.528;9.234;2022-12-07T14:39:53;10.50;99.90
40670;DHT22;26355;45.528;9.234;2022-12-07T14:42:19;10.50;99.90
40670;DHT22;26355;45.528;9.234;2022-12-07T14:44:45;10.60;99.90
40670;DHT22;26355;45.528;9.234;2022-12-07T14:47:11;10.50;99.90
40670;DHT22;26355;45.528;9.234;2022-12-07T14:49:36;12.00;99.90
40670;DHT22;26355;45.528;9.234;2022-12-07T14:52:02;12.10;99.90
40670;DHT22;26355;45.528;9.234;2022-12-07T14:54:31;10.30;99.90
40670;DHT22;26355;45.528;9.234;2022-12-07T14:56:57;10.30;99.90
40670;DHT22;26355;45.528;9.234;2022-12-07T14:59:23;10.20;99.90
40670;DHT22;26355;45.528;9.234;2022-12-07T15:01:49;10.10;99.90
40670;DHT22;26355;45.528;9.234;2022-12-07T15:04:15;10.10;99.90
40670;DHT22;26355;45.528;9.234;2022-12-07T15:06:40;10.30;99.90
40670;DHT22;26355;45.528;9.234;2022-12-07T15:09:10;11.20;99.90
40670;DHT22;26355;45.528;9.234;2022-12-07T15:11:36;11.70;99.90
40670;DHT22;26355;45.528;9.234;2022-12-07T15:14:01;10.20;99.90
40670;DHT22;26355;45.528;9.234;2022-12-07T15:16:34;10.10;99.90
40670;DHT22;26355;45.528;9.234;2022-12-07T15:19:00;10.10;99.90
40670;DHT22;26355;45.528;9.234;2022-12-07T15:21:25;10.10;99.90
40670;DHT22;26355;45.528;9.234;2022-12-07T15:23:51;10.20;99.90
40670;DHT22;26355;45.528;9.234;2022-12-07T15:26:17;10.60;99.90
40670;DHT22;26355;45.528;9.234;2022-12-07T15:28:53;10.10;99.90
40670;DHT22;26355;45.528;9.234;2022-12-07T15:31:19;10.30;99.90
40670;DHT22;26355;45.528;9.234;2022-12-07T15:36:58;10.00;99.90
40670;DHT22;26355;45.528;9.234;2022-12-07T15:39:50;11.00;99.90
40670;DHT22;26355;45.528;9.234;2022-12-07T15:42:15;9.80;99.90
40670;DHT22;26355;45.528;9.234;2022-12-07T15:44:41;9.70;99.90
40670;DHT22;26355;45.528;9.234;2022-12-07T15:47:25;9.80;99.90
40670;DHT22;26355;45.528;9.234;2022-12-07T15:49:50;9.80;99.90
40670;DHT22;26355;45.528;9.234;2022-12-07T15:52:16;9.90;99.90
40670;DHT22;26355;45.528;9.234;2022-12-07T15:54:51;10.20;99.90
40670;DHT22;26355;45.528;9.234;2022-12-07T15:57:16;9.80;99.90
40670;DHT22;26355;45.528;9.234;2022-12-07T15:59:43;9.60;99.90
40670;DHT22;26355;45.528;9.234;2022-12-07T16:02:09;9.60;99.90
40670;DHT22;26355;45.528;9.234;2022-12-07T16:04:36;10.00;99.90
40670;DHT22;26355;45.528;9.234;2022-12-07T16:07:01;9.60;99.90
40670;DHT22;26355;45.528;9.234;2022-12-07T16:09:27;10.00;99.90
40670;DHT22;26355;45.528;9.234;2022-12-07T16:11:53;9.60;99.90
40670;DHT22;26355;45.528;9.234;2022-12-07T16:14:19;9.50;99.90
40670;DHT22;26355;45.528;9.234;2022-12-07T16:16:44;9.50;99.90
40670;DHT22;26355;45.528;9.234;2022-12-07T16:19:10;11.50;99.90
40670;DHT22;26355;45.528;9.234;2022-12-07T16:21:36;9.40;99.90
40670;DHT22;26355;45.528;9.234;2022-12-07T16:24:03;9.50;99.90
40670;DHT22;26355;45.528;9.234;2022-12-07T16:26:28;9.40;99.90
40670;DHT22;26355;45.528;9.234;2022-12-07T16:28:54;9.20;99.90
40670;DHT22;26355;45.528;9.234;2022-12-07T16:31:22;9.40;99.90
40670;DHT22;26355;45.528;9.234;2022-12-07T16:33:48;9.30;99.90
40670;DHT22;26355;45.528;9.234;2022-12-07T16:36:24;9.30;99.90
40670;DHT22;26355;45.528;9.234;2022-12-07T16:38:51;9.20;99.90
40670;DHT22;26355;45.528;9.234;2022-12-07T16:41:17;11.30;99.90
40670;DHT22;26355;45.528;9.234;2022-12-07T16:43:43;10.30;99.90
40670;DHT22;26355;45.528;9.234;2022-12-07T16:46:08;9.20;99.90
40670;DHT22;26355;45.528;9.234;2022-12-07T16:48:39;9.10;99.90
40670;DHT22;26355;45.528;9.234;2022-12-07T16:51:09;9.10;99.90
40670;DHT22;26355;45.528;9.234;2022-12-07T16:53:35;9.00;99.90
40670;DHT22;26355;45.528;9.234;2022-12-07T16:56:01;9.00;99.90
40670;DHT22;26355;45.528;9.234;2022-12-07T16:58:27;8.80;99.90
40670;DHT22;26355;45.528;9.234;2022-12-07T17:00:57;8.80;99.90
40670;DHT22;26355;45.528;9.234;2022-12-07T17:03:23;8.90;99.90
40670;DHT22;26355;45.528;9.234;2022-12-07T17:05:48;8.70;99.90
40670;DHT22;26355;45.528;9.234;2022-12-07T17:08:14;8.80;99.90
40670;DHT22;26355;45.528;9.234;2022-12-07T17:10:42;8.50;99.90
40670;DHT22;26355;45.528;9.234;2022-12-07T17:13:09;8.80;99.90
40670;DHT22;26355;45.528;9.234;2022-12-07T17:16:27;9.70;99.90
40670;DHT22;26355;45.528;9.234;2022-12-07T17:18:52;8.70;99.90
40670;DHT22;26355;45.528;9.234;2022-12-07T17:21:18;8.60;99.90
40670;DHT22;26355;45.528;9.234;2022-12-07T17:24:18;9.70;99.90
40670;DHT22;26355;45.528;9.234;2022-12-07T17:26:45;8.50;99.90
40670;DHT22;26355;45.528;9.234;2022-12-07T17:29:12;10.40;99.90
40670;DHT22;26355;45.528;9.234;2022-12-07T17:31:41;8.40;99.90
40670;DHT22;26355;45.528;9.234;2022-12-07T17:34:11;8.40;99.90
40670;DHT22;26355;45.528;9.234;2022-12-07T17:36:36;8.60;99.90
40670;DHT22;26355;45.528;9.234;2022-12-07T17:39:09;8.80;99.90
40670;DHT22;26355;45.528;9.234;2022-12-07T17:41:37;8.40;99.90
40670;DHT22;26355;45.528;9.234;2022-12-07T17:44:21;8.50;99.90
40670;DHT22;26355;45.528;9.234;2022-12-07T17:46:51;8.90;99.90
40670;DHT22;26355;45.528;9.234;2022-12-07T17:49:22;8.40;99.90
40670;DHT22;26355;45.528;9.234;2022-12-07T17:51:48;8.30;99.90
40670;DHT22;26355;45.528;9.234;2022-12-07T17:54:32;8.50;99.90